sensor_id;sensor_type;location;lat;lon;timestamp;temperature;humidity
74602;DHT22;63112;42.624;26.276;2022-09-02T00:00:41;30.10;28.20
74602;DHT22;63112;42.624;26.276;2022-09-02T00:03:07;30.10;28.30
74602;DHT22;63112;42.624;26.276;2022-09-02T00:05:33;30.10;28.30
74602;DHT22;63112;42.624;26.276;2022-09-02T00:07:58;30.20;28.30
74602;DHT22;63112;42.624;26.276;2022-09-02T00:10:24;30.20;28.20
74602;DHT22;63112;42.624;26.276;2022-09-02T00:12:49;30.20;28.30
74602;DHT22;63112;42.624;26.276;2022-09-02T00:15:15;30.20;28.30
74602;DHT22;63112;42.624;26.276;2022-09-02T00:17:41;30.20;28.30
74602;DHT22;63112;42.624;26.276;2022-09-02T00:20:06;30.20;28.30
74602;DHT22;63112;42.624;26.276;2022-09-02T00:22:32;30.10;28.30
74602;DHT22;63112;42.624;26.276;2022-09-02T00:24:57;30.20;28.40
74602;DHT22;63112;42.624;26.276;2022-09-02T00:27:23;30.10;28.20
74602;DHT22;63112;42.624;26.276;2022-09-02T00:29:49;30.20;28.30
74602;DHT22;63112;42.624;26.276;2022-09-02T00:32:15;30.10;28.30
74602;DHT22;63112;42.624;26.276;2022-09-02T00:34:40;30.20;28.40
74602;DHT22;63112;42.624;26.276;2022-09-02T00:37:06;30.20;28.40
74602;DHT22;63112;42.624;26.276;2022-09-02T00:39:31;30.10;28.30
74602;DHT22;63112;42.624;26.276;2022-09-02T00:41:57;30.10;28.30
74602;DHT22;63112;42.624;26.276;2022-09-02T00:44:23;30.20;28.30
74602;DHT22;63112;42.624;26.276;2022-09-02T00:46:48;30.10;28.30
74602;DHT22;63112;42.624;26.276;2022-09-02T00:51:41;30.10;28.30
74602;DHT22;63112;42.624;26.276;2022-09-02T00:54:07;30.10;28.30
74602;DHT22;63112;42.624;26.276;2022-09-02T00:56:34;30.20;28.30
74602;DHT22;63112;42.624;26.276;2022-09-02T00:59:01;30.10;28.30
74602;DHT22;63112;42.624;26.276;2022-09-02T01:01:27;30.10;28.30
74602;DHT22;63112;42.624;26.276;2022-09-02T01:03:52;30.10;28.30
74602;DHT22;63112;42.624;26.276;2022-09-02T01:06:22;30.10;28.40
74602;DHT22;63112;42.624;26.276;2022-09-02T01:08:50;29.20;27.90
74602;DHT22;63112;42.624;26.276;2022-09-02T01:11:18;30.10;28.40
74602;DHT22;63112;42.624;26.276;2022-09-02T01:13:45;30.00;28.40
74602;DHT22;63112;42.624;26.276;2022-09-02T01:16:14;30.00;28.40
74602;DHT22;63112;42.624;26.276;2022-09-02T01:18:42;30.00;28.40
74602;DHT22;63112;42.624;26.276;2022-09-02T01:21:09;30.00;28.50
74602;DHT22;63112;42.624;26.276;2022-09-02T01:23:35;30.00;28.50
74602;DHT22;63112;42.624;26.276;2022-09-02T01:26:02;30.00;28.40
74602;DHT22;63112;42.624;26.276;2022-09-02T01:28:28;30.00;28.50
74602;DHT22;63112;42.624;26.276;2022-09-02T01:30:53;30.00;28.50
74602;DHT22;63112;42.624;26.276;2022-09-02T01:33:20;30.00;28.50
74602;DHT22;63112;42.624;26.276;2022-09-02T01:35:46;30.00;28.50
74602;DHT22;63112;42.624;26.276;2022-09-02T01:38:12;30.00;28.50
74602;DHT22;63112;42.624;26.276;2022-09-02T01:40:38;30.00;28.50
74602;DHT22;63112;42.624;26.276;2022-09-02T01:43:06;29.90;28.40
74602;DHT22;63112;42.624;26.276;2022-09-02T01:45:33;30.00;28.50
74602;DHT22;63112;42.624;26.276;2022-09-02T01:48:00;30.00;28.50
74602;DHT22;63112;42.624;26.276;2022-09-02T01:50:25;30.00;28.50
74602;DHT22;63112;42.624;26.276;2022-09-02T01:52:51;30.00;28.60
74602;DHT22;63112;42.624;26.276;2022-09-02T01:55:17;29.90;28.50
74602;DHT22;63112;42.624;26.276;2022-09-02T01:57:43;29.90;28.50
74602;DHT22;63112;42.624;26.276;2022-09-02T02:00:09;29.90;29.00
74602;DHT22;63112;42.624;26.276;2022-09-02T02:02:34;29.90;28.40
74602;DHT22;63112;42.624;26.276;2022-09-02T02:05:00;29.90;28.50
74602;DHT22;63112;42.624;26.276;2022-09-02T02:07:26;29.90;28.40
74602;DHT22;63112;42.624;26.276;2022-09-02T02:09:52;29.90;28.40
74602;DHT22;63112;42.624;26.276;2022-09-02T02:12:18;29.90;28.40
74602;DHT22;63112;42.624;26.276;2022-09-02T02:14:43;29.90;28.50
74602;DHT22;63112;42.624;26.276;2022-09-02T02:17:09;29.90;28.50
74602;DHT22;63112;42.624;26.276;2022-09-02T02:19:34;29.90;28.40
74602;DHT22;63112;42.624;26.276;2022-09-02T02:22:00;29.90;28.40
74602;DHT22;63112;42.624;26.276;2022-09-02T02:24:26;29.90;28.50
74602;DHT22;63112;42.624;26.276;2022-09-02T02:26:51;29.90;28.40
74602;DHT22;63112;42.624;26.276;2022-09-02T02:29:17;29.90;28.40
74602;DHT22;63112;42.624;26.276;2022-09-02T02:31:43;29.80;28.30
74602;DHT22;63112;42.624;26.276;2022-09-02T02:34:09;29.80;28.30
74602;DHT22;63112;42.624;26.276;2022-09-02T02:36:35;29.80;28.30
74602;DHT22;63112;42.624;26.276;2022-09-02T02:39:01;29.80;28.40
74602;DHT22;63112;42.624;26.276;2022-09-02T02:41:28;29.80;28.40
74602;DHT22;63112;42.624;26.276;2022-09-02T02:43:54;29.80;28.40
74602;DHT22;63112;42.624;26.276;2022-09-02T02:46:20;29.80;28.40
74602;DHT22;63112;42.624;26.276;2022-09-02T02:48:45;29.80;28.40
74602;DHT22;63112;42.624;26.276;2022-09-02T02:51:11;29.80;28.40
74602;DHT22;63112;42.624;26.276;2022-09-02T02:53:37;29.80;28.40
74602;DHT22;63112;42.624;26.276;2022-09-02T02:56:03;29.80;28.50
74602;DHT22;63112;42.624;26.276;2022-09-02T02:58:29;29.80;28.50
74602;DHT22;63112;42.624;26.276;2022-09-02T03:00:55;29.80;28.50
74602;DHT22;63112;42.624;26.276;2022-09-02T03:03:21;29.80;28.40
74602;DHT22;63112;42.624;26.276;2022-09-02T03:05:48;29.80;28.50
74602;DHT22;63112;42.624;26.276;2022-09-02T03:08:14;29.80;28.40
74602;DHT22;63112;42.624;26.276;2022-09-02T03:10:40;29.80;28.50
74602;DHT22;63112;42.624;26.276;2022-09-02T03:13:07;29.80;28.50
74602;DHT22;63112;42.624;26.276;2022-09-02T03:15:34;29.80;28.70
74602;DHT22;63112;42.624;26.276;2022-09-02T03:18:00;29.80;28.50
74602;DHT22;63112;42.624;26.276;2022-09-02T03:20:26;29.80;28.50
74602;DHT22;63112;42.624;26.276;2022-09-02T03:22:52;29.80;28.40
74602;DHT22;63112;42.624;26.276;2022-09-02T03:25:19;29.70;28.40
74602;DHT22;63112;42.624;26.276;2022-09-02T03:27:45;29.70;28.40
74602;DHT22;63112;42.624;26.276;2022-09-02T03:30:13;29.70;28.40
74602;DHT22;63112;42.624;26.276;2022-09-02T03:32:39;29.70;28.40
74602;DHT22;63112;42.624;26.276;2022-09-02T03:35:05;29.80;28.50
74602;DHT22;63112;42.624;26.276;2022-09-02T03:37:32;29.70;28.40
74602;DHT22;63112;42.624;26.276;2022-09-02T03:40:00;29.70;28.40
74602;DHT22;63112;42.624;26.276;2022-09-02T03:42:25;29.70;28.50
74602;DHT22;63112;42.624;26.276;2022-09-02T03:44:51;29.70;28.40
74602;DHT22;63112;42.624;26.276;2022-09-02T03:47:17;29.70;28.40
74602;DHT22;63112;42.624;26.276;2022-09-02T03:49:46;29.70;28.50
74602;DHT22;63112;42.624;26.276;2022-09-02T03:52:11;29.70;28.40
74602;DHT22;63112;42.624;26.276;2022-09-02T03:54:37;29.70;28.40
74602;DHT22;63112;42.624;26.276;2022-09-02T03:57:02;29.70;28.30
74602;DHT22;63112;42.624;26.276;2022-09-02T03:59:28;29.70;28.40
74602;DHT22;63112;42.624;26.276;2022-09-02T04:01:53;29.70;28.40
74602;DHT22;63112;42.624;26.276;2022-09-02T04:04:19;29.70;28.40
74602;DHT22;63112;42.624;26.276;2022-09-02T04:06:45;29.70;28.40
74602;DHT22;63112;42.624;26.276;2022-09-02T04:09:11;29.70;28.40
74602;DHT22;63112;42.624;26.276;2022-09-02T04:11:36;29.70;28.40
74602;DHT22;63112;42.624;26.276;2022-09-02T04:14:07;29.70;28.40
74602;DHT22;63112;42.624;26.276;2022-09-02T04:16:33;29.70;28.40
74602;DHT22;63112;42.624;26.276;2022-09-02T04:18:59;29.70;28.40
74602;DHT22;63112;42.624;26.276;2022-09-02T04:21:26;29.60;28.30
74602;DHT22;63112;42.624;26.276;2022-09-02T04:23:52;29.60;28.40
74602;DHT22;63112;42.624;26.276;2022-09-02T04:26:18;29.60;28.30
74602;DHT22;63112;42.624;26.276;2022-09-02T04:28:44;29.60;28.30
74602;DHT22;63112;42.624;26.276;2022-09-02T04:31:11;29.70;28.40
74602;DHT22;63112;42.624;26.276;2022-09-02T04:33:37;29.70;28.40
74602;DHT22;63112;42.624;26.276;2022-09-02T04:36:04;29.60;28.30
74602;DHT22;63112;42.624;26.276;2022-09-02T04:38:30;29.60;28.40
74602;DHT22;63112;42.624;26.276;2022-09-02T04:40:55;29.60;28.40
74602;DHT22;63112;42.624;26.276;2022-09-02T04:43:22;29.60;28.40
74602;DHT22;63112;42.624;26.276;2022-09-02T04:45:48;29.60;28.40
74602;DHT22;63112;42.624;26.276;2022-09-02T04:48:13;29.60;28.40
74602;DHT22;63112;42.624;26.276;2022-09-02T04:50:39;29.60;28.40
74602;DHT22;63112;42.624;26.276;2022-09-02T04:53:05;29.60;28.40
74602;DHT22;63112;42.624;26.276;2022-09-02T04:55:31;29.60;28.40
74602;DHT22;63112;42.624;26.276;2022-09-02T04:57:57;29.60;28.40
74602;DHT22;63112;42.624;26.276;2022-09-02T05:00:23;29.60;28.40
74602;DHT22;63112;42.624;26.276;2022-09-02T05:02:50;29.60;28.50
74602;DHT22;63112;42.624;26.276;2022-09-02T05:05:17;29.60;28.30
74602;DHT22;63112;42.624;26.276;2022-09-02T05:07:42;29.60;28.40
74602;DHT22;63112;42.624;26.276;2022-09-02T05:10:08;29.60;28.40
74602;DHT22;63112;42.624;26.276;2022-09-02T05:12:34;29.60;28.40
74602;DHT22;63112;42.624;26.276;2022-09-02T05:15:00;29.70;28.80
74602;DHT22;63112;42.624;26.276;2022-09-02T05:17:27;29.60;29.20
74602;DHT22;63112;42.624;26.276;2022-09-02T05:19:52;29.50;29.40
74602;DHT22;63112;42.624;26.276;2022-09-02T05:22:18;29.50;29.40
74602;DHT22;63112;42.624;26.276;2022-09-02T05:24:44;29.50;29.50
74602;DHT22;63112;42.624;26.276;2022-09-02T05:27:09;29.50;29.60
74602;DHT22;63112;42.624;26.276;2022-09-02T05:29:35;29.50;29.70
74602;DHT22;63112;42.624;26.276;2022-09-02T05:32:01;29.50;29.70
74602;DHT22;63112;42.624;26.276;2022-09-02T05:34:28;29.50;29.80
74602;DHT22;63112;42.624;26.276;2022-09-02T05:36:53;29.50;30.00
74602;DHT22;63112;42.624;26.276;2022-09-02T05:39:19;29.50;30.00
74602;DHT22;63112;42.624;26.276;2022-09-02T05:41:45;29.50;30.10
74602;DHT22;63112;42.624;26.276;2022-09-02T05:44:11;29.50;30.10
74602;DHT22;63112;42.624;26.276;2022-09-02T05:46:36;29.50;30.00
74602;DHT22;63112;42.624;26.276;2022-09-02T05:49:02;29.40;30.10
74602;DHT22;63112;42.624;26.276;2022-09-02T05:51:32;29.40;30.20
74602;DHT22;63112;42.624;26.276;2022-09-02T05:53:58;29.40;30.20
74602;DHT22;63112;42.624;26.276;2022-09-02T05:56:25;29.40;30.60
74602;DHT22;63112;42.624;26.276;2022-09-02T05:58:53;29.40;31.20
74602;DHT22;63112;42.624;26.276;2022-09-02T06:01:19;29.40;31.30
74602;DHT22;63112;42.624;26.276;2022-09-02T06:03:45;29.50;31.30
74602;DHT22;63112;42.624;26.276;2022-09-02T06:06:10;29.50;31.20
74602;DHT22;63112;42.624;26.276;2022-09-02T06:08:36;29.50;31.20
74602;DHT22;63112;42.624;26.276;2022-09-02T06:11:03;29.50;31.30
74602;DHT22;63112;42.624;26.276;2022-09-02T06:13:29;29.60;31.10
74602;DHT22;63112;42.624;26.276;2022-09-02T06:15:55;29.60;31.30
74602;DHT22;63112;42.624;26.276;2022-09-02T06:18:22;29.60;31.90
74602;DHT22;63112;42.624;26.276;2022-09-02T06:20:48;29.60;31.20
74602;DHT22;63112;42.624;26.276;2022-09-02T06:23:14;29.70;31.20
74602;DHT22;63112;42.624;26.276;2022-09-02T06:25:41;29.70;31.40
74602;DHT22;63112;42.624;26.276;2022-09-02T06:28:07;29.70;31.10
74602;DHT22;63112;42.624;26.276;2022-09-02T06:30:33;29.80;31.20
74602;DHT22;63112;42.624;26.276;2022-09-02T06:32:59;29.80;31.20
74602;DHT22;63112;42.624;26.276;2022-09-02T06:35:27;29.90;31.00
74602;DHT22;63112;42.624;26.276;2022-09-02T06:37:53;30.00;31.00
74602;DHT22;63112;42.624;26.276;2022-09-02T06:40:18;30.00;30.90
74602;DHT22;63112;42.624;26.276;2022-09-02T06:42:44;29.90;30.90
74602;DHT22;63112;42.624;26.276;2022-09-02T06:45:09;30.00;31.00
74602;DHT22;63112;42.624;26.276;2022-09-02T06:47:35;29.90;30.80
74602;DHT22;63112;42.624;26.276;2022-09-02T06:50:01;29.90;30.90
74602;DHT22;63112;42.624;26.276;2022-09-02T06:52:27;29.90;30.80
74602;DHT22;63112;42.624;26.276;2022-09-02T06:54:52;30.00;30.70
74602;DHT22;63112;42.624;26.276;2022-09-02T06:57:19;30.00;30.70
74602;DHT22;63112;42.624;26.276;2022-09-02T06:59:45;30.00;30.70
74602;DHT22;63112;42.624;26.276;2022-09-02T07:02:11;30.00;30.70
74602;DHT22;63112;42.624;26.276;2022-09-02T07:04:36;30.00;31.00
74602;DHT22;63112;42.624;26.276;2022-09-02T07:07:20;30.00;30.50
74602;DHT22;63112;42.624;26.276;2022-09-02T07:09:46;29.90;30.80
74602;DHT22;63112;42.624;26.276;2022-09-02T07:12:11;30.00;31.20
74602;DHT22;63112;42.624;26.276;2022-09-02T07:14:38;30.00;30.80
74602;DHT22;63112;42.624;26.276;2022-09-02T07:17:04;30.00;31.20
74602;DHT22;63112;42.624;26.276;2022-09-02T07:19:30;30.00;31.00
74602;DHT22;63112;42.624;26.276;2022-09-02T07:21:55;30.10;30.80
74602;DHT22;63112;42.624;26.276;2022-09-02T07:24:21;30.00;30.70
74602;DHT22;63112;42.624;26.276;2022-09-02T07:26:47;30.00;30.70
74602;DHT22;63112;42.624;26.276;2022-09-02T07:29:12;30.00;31.00
74602;DHT22;63112;42.624;26.276;2022-09-02T07:31:39;30.00;30.90
74602;DHT22;63112;42.624;26.276;2022-09-02T07:34:05;29.90;30.90
74602;DHT22;63112;42.624;26.276;2022-09-02T07:36:32;29.90;30.90
74602;DHT22;63112;42.624;26.276;2022-09-02T07:38:59;29.90;30.90
74602;DHT22;63112;42.624;26.276;2022-09-02T07:41:25;29.90;31.00
74602;DHT22;63112;42.624;26.276;2022-09-02T07:43:50;29.90;31.00
74602;DHT22;63112;42.624;26.276;2022-09-02T07:46:16;29.90;31.10
74602;DHT22;63112;42.624;26.276;2022-09-02T07:48:42;29.80;31.00
74602;DHT22;63112;42.624;26.276;2022-09-02T07:51:08;29.80;31.30
74602;DHT22;63112;42.624;26.276;2022-09-02T07:53:34;29.80;31.20
74602;DHT22;63112;42.624;26.276;2022-09-02T07:56:00;29.90;31.20
74602;DHT22;63112;42.624;26.276;2022-09-02T07:58:26;29.80;31.30
74602;DHT22;63112;42.624;26.276;2022-09-02T08:00:52;29.80;31.30
74602;DHT22;63112;42.624;26.276;2022-09-02T08:03:20;29.80;31.40
74602;DHT22;63112;42.624;26.276;2022-09-02T08:05:46;29.80;31.40
74602;DHT22;63112;42.624;26.276;2022-09-02T08:08:12;29.80;31.50
74602;DHT22;63112;42.624;26.276;2022-09-02T08:10:37;29.80;31.50
74602;DHT22;63112;42.624;26.276;2022-09-02T08:13:03;29.80;31.40
74602;DHT22;63112;42.624;26.276;2022-09-02T08:15:31;29.80;31.40
74602;DHT22;63112;42.624;26.276;2022-09-02T08:17:57;29.80;31.40
74602;DHT22;63112;42.624;26.276;2022-09-02T08:20:23;29.80;31.30
74602;DHT22;63112;42.624;26.276;2022-09-02T08:22:48;29.80;31.30
74602;DHT22;63112;42.624;26.276;2022-09-02T08:25:14;29.80;31.30
74602;DHT22;63112;42.624;26.276;2022-09-02T08:27:42;29.80;31.30
74602;DHT22;63112;42.624;26.276;2022-09-02T08:30:08;29.80;31.20
74602;DHT22;63112;42.624;26.276;2022-09-02T08:32:34;29.80;31.20
74602;DHT22;63112;42.624;26.276;2022-09-02T08:35:00;29.70;31.20
74602;DHT22;63112;42.624;26.276;2022-09-02T08:37:27;29.70;31.10
74602;DHT22;63112;42.624;26.276;2022-09-02T08:39:53;29.80;31.20
74602;DHT22;63112;42.624;26.276;2022-09-02T08:48:02;29.80;31.10
74602;DHT22;63112;42.624;26.276;2022-09-02T08:50:29;29.80;31.20
74602;DHT22;63112;42.624;26.276;2022-09-02T08:55:38;29.80;31.10
74602;DHT22;63112;42.624;26.276;2022-09-02T08:58:05;29.80;31.00
74602;DHT22;63112;42.624;26.276;2022-09-02T09:00:39;29.80;30.90
74602;DHT22;63112;42.624;26.276;2022-09-02T09:08:45;29.70;30.70
74602;DHT22;63112;42.624;26.276;2022-09-02T09:21:33;29.70;30.70
74602;DHT22;63112;42.624;26.276;2022-09-02T09:24:05;29.70;30.60
74602;DHT22;63112;42.624;26.276;2022-09-02T09:26:31;29.70;30.60
74602;DHT22;63112;42.624;26.276;2022-09-02T09:28:59;29.80;30.30
74602;DHT22;63112;42.624;26.276;2022-09-02T09:31:28;29.80;30.40
74602;DHT22;63112;42.624;26.276;2022-09-02T09:36:33;29.80;31.00
74602;DHT22;63112;42.624;26.276;2022-09-02T09:41:47;29.80;31.60
74602;DHT22;63112;42.624;26.276;2022-09-02T09:47:00;29.80;32.20
74602;DHT22;63112;42.624;26.276;2022-09-02T09:49:30;29.80;32.30
74602;DHT22;63112;42.624;26.276;2022-09-02T09:51:56;29.80;31.60
74602;DHT22;63112;42.624;26.276;2022-09-02T09:54:24;29.80;31.60
74602;DHT22;63112;42.624;26.276;2022-09-02T09:56:50;29.80;31.80
74602;DHT22;63112;42.624;26.276;2022-09-02T10:01:59;29.80;31.50
74602;DHT22;63112;42.624;26.276;2022-09-02T10:04:29;29.80;31.40
74602;DHT22;63112;42.624;26.276;2022-09-02T10:06:55;29.80;31.30
74602;DHT22;63112;42.624;26.276;2022-09-02T10:12:00;29.80;31.30
74602;DHT22;63112;42.624;26.276;2022-09-02T10:14:27;29.70;31.20
74602;DHT22;63112;42.624;26.276;2022-09-02T10:27:02;29.40;34.20
74602;DHT22;63112;42.624;26.276;2022-09-02T10:37:48;29.50;36.10
74602;DHT22;63112;42.624;26.276;2022-09-02T10:40:16;29.40;36.10
74602;DHT22;63112;42.624;26.276;2022-09-02T10:50:38;29.50;37.70
74602;DHT22;63112;42.624;26.276;2022-09-02T11:00:52;29.60;38.50
74602;DHT22;63112;42.624;26.276;2022-09-02T11:03:22;29.70;38.50
74602;DHT22;63112;42.624;26.276;2022-09-02T11:05:53;29.60;38.50
74602;DHT22;63112;42.624;26.276;2022-09-02T11:21:02;29.60;39.00
74602;DHT22;63112;42.624;26.276;2022-09-02T11:31:21;29.60;40.60
74602;DHT22;63112;42.624;26.276;2022-09-02T11:33:53;29.60;40.80
74602;DHT22;63112;42.624;26.276;2022-09-02T11:36:20;29.60;40.90
74602;DHT22;63112;42.624;26.276;2022-09-02T11:38:53;29.60;41.60
74602;DHT22;63112;42.624;26.276;2022-09-02T11:54:10;29.30;40.60
74602;DHT22;63112;42.624;26.276;2022-09-02T11:56:38;29.30;40.40
74602;DHT22;63112;42.624;26.276;2022-09-02T11:59:05;29.30;40.10
74602;DHT22;63112;42.624;26.276;2022-09-02T12:01:40;29.20;39.80
74602;DHT22;63112;42.624;26.276;2022-09-02T12:06:37;29.30;39.80
74602;DHT22;63112;42.624;26.276;2022-09-02T12:12:07;29.30;39.80
74602;DHT22;63112;42.624;26.276;2022-09-02T12:17:12;29.20;39.90
74602;DHT22;63112;42.624;26.276;2022-09-02T12:20:01;29.20;40.00
74602;DHT22;63112;42.624;26.276;2022-09-02T12:22:30;29.30;39.90
74602;DHT22;63112;42.624;26.276;2022-09-02T12:24:57;29.20;39.90
74602;DHT22;63112;42.624;26.276;2022-09-02T12:27:24;29.20;40.00
74602;DHT22;63112;42.624;26.276;2022-09-02T12:29:50;29.20;40.30
74602;DHT22;63112;42.624;26.276;2022-09-02T12:35:08;29.10;40.60
74602;DHT22;63112;42.624;26.276;2022-09-02T12:40:17;29.00;40.30
74602;DHT22;63112;42.624;26.276;2022-09-02T12:42:44;29.00;40.20
74602;DHT22;63112;42.624;26.276;2022-09-02T12:45:12;29.00;40.10
74602;DHT22;63112;42.624;26.276;2022-09-02T12:50:34;29.00;39.70
74602;DHT22;63112;42.624;26.276;2022-09-02T12:55:57;29.10;39.70
74602;DHT22;63112;42.624;26.276;2022-09-02T12:58:25;29.00;39.50
74602;DHT22;63112;42.624;26.276;2022-09-02T13:18:36;28.70;39.10
74602;DHT22;63112;42.624;26.276;2022-09-02T13:31:28;28.70;39.50
74602;DHT22;63112;42.624;26.276;2022-09-02T13:33:58;28.70;40.30
74602;DHT22;63112;42.624;26.276;2022-09-02T13:36:27;28.60;39.70
74602;DHT22;63112;42.624;26.276;2022-09-02T13:38:53;28.60;39.70
74602;DHT22;63112;42.624;26.276;2022-09-02T13:41:29;28.60;39.70
74602;DHT22;63112;42.624;26.276;2022-09-02T13:44:04;28.60;39.80
74602;DHT22;63112;42.624;26.276;2022-09-02T13:46:30;28.60;40.10
74602;DHT22;63112;42.624;26.276;2022-09-02T13:48:56;28.60;40.10
74602;DHT22;63112;42.624;26.276;2022-09-02T13:51:22;28.70;40.00
74602;DHT22;63112;42.624;26.276;2022-09-02T13:53:47;28.60;40.00
74602;DHT22;63112;42.624;26.276;2022-09-02T13:56:15;28.70;39.90
74602;DHT22;63112;42.624;26.276;2022-09-02T13:58:51;28.60;39.90
74602;DHT22;63112;42.624;26.276;2022-09-02T14:01:22;28.70;39.80
74602;DHT22;63112;42.624;26.276;2022-09-02T14:03:49;28.70;39.90
74602;DHT22;63112;42.624;26.276;2022-09-02T14:06:34;28.70;39.90
74602;DHT22;63112;42.624;26.276;2022-09-02T14:09:01;28.70;40.10
74602;DHT22;63112;42.624;26.276;2022-09-02T14:11:28;28.70;40.20
74602;DHT22;63112;42.624;26.276;2022-09-02T14:13:57;28.70;40.40
74602;DHT22;63112;42.624;26.276;2022-09-02T14:19:04;28.70;40.40
74602;DHT22;63112;42.624;26.276;2022-09-02T14:21:31;28.70;40.40
74602;DHT22;63112;42.624;26.276;2022-09-02T14:23:56;28.70;40.30
74602;DHT22;63112;42.624;26.276;2022-09-02T14:27:09;28.70;40.40
74602;DHT22;63112;42.624;26.276;2022-09-02T14:29:12;28.70;40.60
74602;DHT22;63112;42.624;26.276;2022-09-02T14:31:39;28.70;40.60
74602;DHT22;63112;42.624;26.276;2022-09-02T14:34:30;28.70;40.70
74602;DHT22;63112;42.624;26.276;2022-09-02T14:36:50;28.70;40.90
74602;DHT22;63112;42.624;26.276;2022-09-02T14:39:16;28.70;41.10
74602;DHT22;63112;42.624;26.276;2022-09-02T14:41:51;28.70;41.50
74602;DHT22;63112;42.624;26.276;2022-09-02T14:44:31;28.70;41.70
74602;DHT22;63112;42.624;26.276;2022-09-02T14:47:05;28.70;41.90
74602;DHT22;63112;42.624;26.276;2022-09-02T14:50:04;28.80;42.00
74602;DHT22;63112;42.624;26.276;2022-09-02T14:54:49;28.70;42.10
74602;DHT22;63112;42.624;26.276;2022-09-02T14:57:25;28.70;42.10
74602;DHT22;63112;42.624;26.276;2022-09-02T14:59:54;28.70;42.30
74602;DHT22;63112;42.624;26.276;2022-09-02T15:04:55;28.70;42.40
74602;DHT22;63112;42.624;26.276;2022-09-02T15:07:21;28.70;42.50
74602;DHT22;63112;42.624;26.276;2022-09-02T15:09:47;28.70;42.50
74602;DHT22;63112;42.624;26.276;2022-09-02T15:12:18;28.70;42.60
74602;DHT22;63112;42.624;26.276;2022-09-02T15:14:44;28.70;42.60
74602;DHT22;63112;42.624;26.276;2022-09-02T15:17:12;28.70;42.60
74602;DHT22;63112;42.624;26.276;2022-09-02T15:19:38;28.70;42.80
74602;DHT22;63112;42.624;26.276;2022-09-02T15:22:03;28.70;42.80
74602;DHT22;63112;42.624;26.276;2022-09-02T15:24:29;28.60;42.80
74602;DHT22;63112;42.624;26.276;2022-09-02T15:26:54;28.60;43.00
74602;DHT22;63112;42.624;26.276;2022-09-02T15:29:20;28.60;43.10
74602;DHT22;63112;42.624;26.276;2022-09-02T15:31:49;28.60;43.00
74602;DHT22;63112;42.624;26.276;2022-09-02T15:34:15;28.60;43.20
74602;DHT22;63112;42.624;26.276;2022-09-02T15:36:40;28.60;43.30
74602;DHT22;63112;42.624;26.276;2022-09-02T15:39:06;28.60;43.60
74602;DHT22;63112;42.624;26.276;2022-09-02T15:41:31;28.60;43.70
74602;DHT22;63112;42.624;26.276;2022-09-02T15:43:58;28.60;43.60
74602;DHT22;63112;42.624;26.276;2022-09-02T15:46:25;28.60;43.50
74602;DHT22;63112;42.624;26.276;2022-09-02T15:48:51;28.60;43.30
74602;DHT22;63112;42.624;26.276;2022-09-02T15:51:18;28.60;43.10
74602;DHT22;63112;42.624;26.276;2022-09-02T15:53:44;28.60;43.10
74602;DHT22;63112;42.624;26.276;2022-09-02T15:56:16;28.60;43.30
74602;DHT22;63112;42.624;26.276;2022-09-02T15:58:42;28.60;43.50
74602;DHT22;63112;42.624;26.276;2022-09-02T16:01:07;28.70;43.60
74602;DHT22;63112;42.624;26.276;2022-09-02T16:03:34;28.70;43.60
74602;DHT22;63112;42.624;26.276;2022-09-02T16:06:00;28.70;43.80
74602;DHT22;63112;42.624;26.276;2022-09-02T16:08:25;28.70;43.80
74602;DHT22;63112;42.624;26.276;2022-09-02T16:10:51;28.80;43.50
74602;DHT22;63112;42.624;26.276;2022-09-02T16:13:16;28.80;43.00
74602;DHT22;63112;42.624;26.276;2022-09-02T16:15:42;28.80;42.80
74602;DHT22;63112;42.624;26.276;2022-09-02T16:18:10;28.90;42.60
74602;DHT22;63112;42.624;26.276;2022-09-02T16:20:35;28.90;42.50
74602;DHT22;63112;42.624;26.276;2022-09-02T16:23:01;28.90;42.40
74602;DHT22;63112;42.624;26.276;2022-09-02T16:25:26;28.90;42.30
74602;DHT22;63112;42.624;26.276;2022-09-02T16:27:52;28.90;42.20
74602;DHT22;63112;42.624;26.276;2022-09-02T16:30:19;28.90;42.20
74602;DHT22;63112;42.624;26.276;2022-09-02T16:32:44;28.90;42.20
74602;DHT22;63112;42.624;26.276;2022-09-02T16:35:12;29.00;42.30
74602;DHT22;63112;42.624;26.276;2022-09-02T16:37:37;28.90;42.00
74602;DHT22;63112;42.624;26.276;2022-09-02T16:40:03;29.00;41.80
74602;DHT22;63112;42.624;26.276;2022-09-02T16:42:29;29.00;41.40
74602;DHT22;63112;42.624;26.276;2022-09-02T16:44:55;29.00;41.20
74602;DHT22;63112;42.624;26.276;2022-09-02T16:47:20;29.00;40.90
74602;DHT22;63112;42.624;26.276;2022-09-02T16:49:46;29.10;40.90
74602;DHT22;63112;42.624;26.276;2022-09-02T16:52:12;29.00;40.90
74602;DHT22;63112;42.624;26.276;2022-09-02T16:54:37;29.10;40.70
74602;DHT22;63112;42.624;26.276;2022-09-02T16:57:03;29.10;40.50
74602;DHT22;63112;42.624;26.276;2022-09-02T16:59:29;29.10;40.40
74602;DHT22;63112;42.624;26.276;2022-09-02T17:01:57;29.10;40.20
74602;DHT22;63112;42.624;26.276;2022-09-02T17:04:23;29.10;40.00
74602;DHT22;63112;42.624;26.276;2022-09-02T17:06:48;29.10;39.90
74602;DHT22;63112;42.624;26.276;2022-09-02T17:09:14;29.20;39.90
74602;DHT22;63112;42.624;26.276;2022-09-02T17:11:40;29.20;39.70
74602;DHT22;63112;42.624;26.276;2022-09-02T17:14:08;29.10;39.70
74602;DHT22;63112;42.624;26.276;2022-09-02T17:16:35;29.00;40.10
74602;DHT22;63112;42.624;26.276;2022-09-02T17:19:02;29.10;40.10
74602;DHT22;63112;42.624;26.276;2022-09-02T17:21:28;29.10;39.90
74602;DHT22;63112;42.624;26.276;2022-09-02T17:23:55;29.20;39.90
74602;DHT22;63112;42.624;26.276;2022-09-02T17:26:22;29.20;39.80
74602;DHT22;63112;42.624;26.276;2022-09-02T17:28:48;29.20;39.90
74602;DHT22;63112;42.624;26.276;2022-09-02T17:31:22;29.20;39.60
74602;DHT22;63112;42.624;26.276;2022-09-02T17:33:48;29.20;39.40
74602;DHT22;63112;42.624;26.276;2022-09-02T17:36:14;29.30;39.40
74602;DHT22;63112;42.624;26.276;2022-09-02T17:38:39;29.40;39.10
74602;DHT22;63112;42.624;26.276;2022-09-02T17:41:05;29.40;39.20
74602;DHT22;63112;42.624;26.276;2022-09-02T17:43:50;29.40;39.00
74602;DHT22;63112;42.624;26.276;2022-09-02T17:46:15;29.50;38.90
74602;DHT22;63112;42.624;26.276;2022-09-02T17:48:41;29.50;38.90
74602;DHT22;63112;42.624;26.276;2022-09-02T17:51:06;29.40;38.80
74602;DHT22;63112;42.624;26.276;2022-09-02T17:53:32;29.40;38.80
74602;DHT22;63112;42.624;26.276;2022-09-02T17:56:10;29.50;38.40